sensor_id;sensor_type;location;lat;lon;timestamp;temperature;humidity
44247;DHT22;29922;0.000;0.000;2022-07-10T00:00:14;18.10;54.60
44247;DHT22;29922;0.000;0.000;2022-07-10T00:05:36;18.10;54.60
44247;DHT22;29922;0.000;0.000;2022-07-10T00:10:58;18.10;54.60
44247;DHT22;29922;0.000;0.000;2022-07-10T00:16:19;18.00;54.60
44247;DHT22;29922;0.000;0.000;2022-07-10T00:21:39;18.10;54.70
44247;DHT22;29922;0.000;0.000;2022-07-10T00:27:02;18.00;54.60
44247;DHT22;29922;0.000;0.000;2022-07-10T00:32:23;18.10;54.60
44247;DHT22;29922;0.000;0.000;2022-07-10T00:37:43;18.10;54.60
44247;DHT22;29922;0.000;0.000;2022-07-10T00:43:09;18.10;55.40
44247;DHT22;29922;0.000;0.000;2022-07-10T00:48:29;18.00;54.70
44247;DHT22;29922;0.000;0.000;2022-07-10T00:53:50;18.10;54.60
44247;DHT22;29922;0.000;0.000;2022-07-10T00:59:12;18.00;54.60
44247;DHT22;29922;0.000;0.000;2022-07-10T01:04:34;18.10;54.70
44247;DHT22;29922;0.000;0.000;2022-07-10T01:09:55;18.00;54.60
44247;DHT22;29922;0.000;0.000;2022-07-10T01:15:20;18.00;54.60
44247;DHT22;29922;0.000;0.000;2022-07-10T01:20:40;18.00;54.60
44247;DHT22;29922;0.000;0.000;2022-07-10T01:26:03;18.00;54.70
44247;DHT22;29922;0.000;0.000;2022-07-10T01:31:25;18.00;54.60
44247;DHT22;29922;0.000;0.000;2022-07-10T01:36:46;18.00;54.60
44247;DHT22;29922;0.000;0.000;2022-07-10T01:42:08;18.00;54.70
44247;DHT22;29922;0.000;0.000;2022-07-10T01:47:28;18.00;54.70
44247;DHT22;29922;0.000;0.000;2022-07-10T01:52:49;18.00;54.70
44247;DHT22;29922;0.000;0.000;2022-07-10T01:58:11;18.00;54.70
44247;DHT22;29922;0.000;0.000;2022-07-10T02:03:32;18.00;54.60
44247;DHT22;29922;0.000;0.000;2022-07-10T02:09:10;18.00;54.70
44247;DHT22;29922;0.000;0.000;2022-07-10T02:14:32;18.00;54.60
44247;DHT22;29922;0.000;0.000;2022-07-10T02:19:52;18.00;54.70
44247;DHT22;29922;0.000;0.000;2022-07-10T02:25:13;18.00;54.80
44247;DHT22;29922;0.000;0.000;2022-07-10T02:30:35;18.00;54.70
44247;DHT22;29922;0.000;0.000;2022-07-10T02:35:55;18.00;54.80
44247;DHT22;29922;0.000;0.000;2022-07-10T02:41:16;18.00;54.70
44247;DHT22;29922;0.000;0.000;2022-07-10T02:46:37;18.00;54.60
44247;DHT22;29922;0.000;0.000;2022-07-10T02:51:58;18.00;54.70
44247;DHT22;29922;0.000;0.000;2022-07-10T02:57:18;18.00;54.70
44247;DHT22;29922;0.000;0.000;2022-07-10T03:02:40;18.00;54.70
44247;DHT22;29922;0.000;0.000;2022-07-10T03:08:01;18.00;54.70
44247;DHT22;29922;0.000;0.000;2022-07-10T03:13:21;18.00;54.70
44247;DHT22;29922;0.000;0.000;2022-07-10T03:18:43;18.00;54.70
44247;DHT22;29922;0.000;0.000;2022-07-10T03:24:05;18.00;54.60
44247;DHT22;29922;0.000;0.000;2022-07-10T03:29:26;18.00;54.80
44247;DHT22;29922;0.000;0.000;2022-07-10T03:34:47;18.00;54.70
44247;DHT22;29922;0.000;0.000;2022-07-10T03:40:09;18.00;54.80
44247;DHT22;29922;0.000;0.000;2022-07-10T03:45:30;18.00;54.70
44247;DHT22;29922;0.000;0.000;2022-07-10T03:50:52;18.00;54.80
44247;DHT22;29922;0.000;0.000;2022-07-10T03:56:13;18.00;54.70
44247;DHT22;29922;0.000;0.000;2022-07-10T04:01:53;18.00;54.80
44247;DHT22;29922;0.000;0.000;2022-07-10T04:07:15;18.00;54.60
44247;DHT22;29922;0.000;0.000;2022-07-10T04:12:36;18.00;54.70
44247;DHT22;29922;0.000;0.000;2022-07-10T04:17:57;17.90;54.70
44247;DHT22;29922;0.000;0.000;2022-07-10T04:23:19;18.00;54.60
44247;DHT22;29922;0.000;0.000;2022-07-10T04:28:39;17.90;54.70
44247;DHT22;29922;0.000;0.000;2022-07-10T04:34:00;18.00;54.70
44247;DHT22;29922;0.000;0.000;2022-07-10T04:39:23;17.90;55.30
44247;DHT22;29922;0.000;0.000;2022-07-10T04:44:43;18.00;54.70
44247;DHT22;29922;0.000;0.000;2022-07-10T04:50:05;18.00;54.60
44247;DHT22;29922;0.000;0.000;2022-07-10T04:55:28;18.00;54.60
44247;DHT22;29922;0.000;0.000;2022-07-10T05:00:48;18.00;54.70
44247;DHT22;29922;0.000;0.000;2022-07-10T05:06:09;18.00;54.60
44247;DHT22;29922;0.000;0.000;2022-07-10T05:11:31;18.00;55.30
44247;DHT22;29922;0.000;0.000;2022-07-10T05:16:51;18.00;54.60
44247;DHT22;29922;0.000;0.000;2022-07-10T05:22:12;18.00;54.60
44247;DHT22;29922;0.000;0.000;2022-07-10T05:27:34;18.00;54.70
44247;DHT22;29922;0.000;0.000;2022-07-10T05:32:55;18.00;54.70
44247;DHT22;29922;0.000;0.000;2022-07-10T05:38:15;18.00;54.70
44247;DHT22;29922;0.000;0.000;2022-07-10T05:43:38;18.00;54.60
44247;DHT22;29922;0.000;0.000;2022-07-10T05:48:58;18.00;54.60
44247;DHT22;29922;0.000;0.000;2022-07-10T05:54:18;18.00;54.70
44247;DHT22;29922;0.000;0.000;2022-07-10T05:59:40;18.00;54.70
44247;DHT22;29922;0.000;0.000;2022-07-10T06:05:01;18.00;54.60
44247;DHT22;29922;0.000;0.000;2022-07-10T06:10:22;18.00;54.70
44247;DHT22;29922;0.000;0.000;2022-07-10T06:15:44;18.00;54.50
44247;DHT22;29922;0.000;0.000;2022-07-10T06:21:04;18.00;54.80
44247;DHT22;29922;0.000;0.000;2022-07-10T06:26:25;18.00;54.80
44247;DHT22;29922;0.000;0.000;2022-07-10T06:31:47;17.90;54.70
44247;DHT22;29922;0.000;0.000;2022-07-10T06:37:07;18.10;54.80
44247;DHT22;29922;0.000;0.000;2022-07-10T06:42:28;17.90;54.70
44247;DHT22;29922;0.000;0.000;2022-07-10T06:47:49;18.00;54.80
44247;DHT22;29922;0.000;0.000;2022-07-10T06:53:16;17.90;54.80
44247;DHT22;29922;0.000;0.000;2022-07-10T06:58:37;17.90;54.80
44247;DHT22;29922;0.000;0.000;2022-07-10T07:03:59;18.00;54.90
44247;DHT22;29922;0.000;0.000;2022-07-10T07:09:19;17.90;54.80
44247;DHT22;29922;0.000;0.000;2022-07-10T07:14:40;18.00;54.90
44247;DHT22;29922;0.000;0.000;2022-07-10T07:20:02;18.00;54.80
44247;DHT22;29922;0.000;0.000;2022-07-10T07:25:41;17.90;54.80
44247;DHT22;29922;0.000;0.000;2022-07-10T07:31:05;18.00;54.90
44247;DHT22;29922;0.000;0.000;2022-07-10T07:36:27;18.00;54.90
44247;DHT22;29922;0.000;0.000;2022-07-10T07:41:47;18.00;55.00
44247;DHT22;29922;0.000;0.000;2022-07-10T07:47:08;18.00;54.80
44247;DHT22;29922;0.000;0.000;2022-07-10T07:52:30;18.00;54.90
44247;DHT22;29922;0.000;0.000;2022-07-10T07:57:54;18.00;54.90
44247;DHT22;29922;0.000;0.000;2022-07-10T08:03:15;18.00;54.90
44247;DHT22;29922;0.000;0.000;2022-07-10T08:08:37;18.00;54.90
44247;DHT22;29922;0.000;0.000;2022-07-10T08:13:57;18.00;54.90
44247;DHT22;29922;0.000;0.000;2022-07-10T08:19:18;18.00;54.80
44247;DHT22;29922;0.000;0.000;2022-07-10T08:24:40;18.00;54.90
44247;DHT22;29922;0.000;0.000;2022-07-10T08:30:00;18.00;55.00
44247;DHT22;29922;0.000;0.000;2022-07-10T08:35:21;18.00;54.90
44247;DHT22;29922;0.000;0.000;2022-07-10T08:40:44;18.00;55.00
44247;DHT22;29922;0.000;0.000;2022-07-10T08:46:06;18.00;54.90
44247;DHT22;29922;0.000;0.000;2022-07-10T08:51:35;18.00;55.00
44247;DHT22;29922;0.000;0.000;2022-07-10T08:56:59;18.00;55.00
44247;DHT22;29922;0.000;0.000;2022-07-10T09:02:21;18.00;55.00
44247;DHT22;29922;0.000;0.000;2022-07-10T09:07:41;18.00;55.00
44247;DHT22;29922;0.000;0.000;2022-07-10T09:13:04;18.00;54.90
44247;DHT22;29922;0.000;0.000;2022-07-10T09:18:24;18.00;54.90
44247;DHT22;29922;0.000;0.000;2022-07-10T09:23:46;18.00;54.90
44247;DHT22;29922;0.000;0.000;2022-07-10T09:29:09;18.00;54.90
44247;DHT22;29922;0.000;0.000;2022-07-10T09:34:37;18.00;54.90
44247;DHT22;29922;0.000;0.000;2022-07-10T09:40:00;18.00;54.90
44247;DHT22;29922;0.000;0.000;2022-07-10T09:45:24;18.10;54.90
44247;DHT22;29922;0.000;0.000;2022-07-10T09:50:45;18.00;54.90
44247;DHT22;29922;0.000;0.000;2022-07-10T09:56:07;18.00;54.90
44247;DHT22;29922;0.000;0.000;2022-07-10T10:01:29;18.10;55.00
44247;DHT22;29922;0.000;0.000;2022-07-10T10:06:51;18.10;54.90
44247;DHT22;29922;0.000;0.000;2022-07-10T10:12:17;18.10;55.00
44247;DHT22;29922;0.000;0.000;2022-07-10T10:17:42;18.00;54.90
44247;DHT22;29922;0.000;0.000;2022-07-10T10:23:04;18.10;55.00
44247;DHT22;29922;0.000;0.000;2022-07-10T10:28:26;18.00;54.90
44247;DHT22;29922;0.000;0.000;2022-07-10T10:33:49;18.10;54.90
44247;DHT22;29922;0.000;0.000;2022-07-10T10:39:16;18.10;54.90
44247;DHT22;29922;0.000;0.000;2022-07-10T10:44:38;18.10;54.90
44247;DHT22;29922;0.000;0.000;2022-07-10T10:49:59;18.00;54.80
44247;DHT22;29922;0.000;0.000;2022-07-10T10:55:21;18.10;54.80
44247;DHT22;29922;0.000;0.000;2022-07-10T11:00:42;18.10;54.80
44247;DHT22;29922;0.000;0.000;2022-07-10T11:06:07;18.10;54.80
44247;DHT22;29922;0.000;0.000;2022-07-10T11:11:38;18.10;54.90
44247;DHT22;29922;0.000;0.000;2022-07-10T11:17:02;18.10;55.00
44247;DHT22;29922;0.000;0.000;2022-07-10T11:22:47;18.10;55.00
44247;DHT22;29922;0.000;0.000;2022-07-10T11:28:13;18.10;55.10
44247;DHT22;29922;0.000;0.000;2022-07-10T11:33:42;18.10;55.10
44247;DHT22;29922;0.000;0.000;2022-07-10T11:39:06;18.10;55.10
44247;DHT22;29922;0.000;0.000;2022-07-10T11:44:27;18.10;55.20
44247;DHT22;29922;0.000;0.000;2022-07-10T11:49:48;18.10;55.20
44247;DHT22;29922;0.000;0.000;2022-07-10T11:55:18;18.10;55.20
44247;DHT22;29922;0.000;0.000;2022-07-10T12:00:40;18.10;55.20
44247;DHT22;29922;0.000;0.000;2022-07-10T12:06:05;18.10;55.10
44247;DHT22;29922;0.000;0.000;2022-07-10T12:11:28;18.10;55.10
44247;DHT22;29922;0.000;0.000;2022-07-10T12:16:50;18.10;55.10
44247;DHT22;29922;0.000;0.000;2022-07-10T12:22:12;18.10;55.10
44247;DHT22;29922;0.000;0.000;2022-07-10T12:27:40;18.10;55.10
44247;DHT22;29922;0.000;0.000;2022-07-10T12:33:09;18.10;55.10
44247;DHT22;29922;0.000;0.000;2022-07-10T12:38:35;18.10;55.10
44247;DHT22;29922;0.000;0.000;2022-07-10T12:43:57;18.10;55.10
44247;DHT22;29922;0.000;0.000;2022-07-10T12:49:17;18.10;55.10
44247;DHT22;29922;0.000;0.000;2022-07-10T12:54:38;18.10;55.00
44247;DHT22;29922;0.000;0.000;2022-07-10T13:00:05;18.10;55.10
44247;DHT22;29922;0.000;0.000;2022-07-10T13:05:33;18.10;55.00
44247;DHT22;29922;0.000;0.000;2022-07-10T13:10:56;18.20;55.00
44247;DHT22;29922;0.000;0.000;2022-07-10T13:16:20;18.10;55.00
44247;DHT22;29922;0.000;0.000;2022-07-10T13:21:41;18.10;55.00
44247;DHT22;29922;0.000;0.000;2022-07-10T13:27:02;18.10;55.10
44247;DHT22;29922;0.000;0.000;2022-07-10T13:32:25;18.20;55.10
44247;DHT22;29922;0.000;0.000;2022-07-10T13:37:46;18.10;55.10
44247;DHT22;29922;0.000;0.000;2022-07-10T13:43:07;18.20;55.10
44247;DHT22;29922;0.000;0.000;2022-07-10T13:48:29;18.10;55.00
44247;DHT22;29922;0.000;0.000;2022-07-10T13:53:50;18.10;55.00
44247;DHT22;29922;0.000;0.000;2022-07-10T13:59:10;18.20;55.10
44247;DHT22;29922;0.000;0.000;2022-07-10T14:04:32;18.20;55.10
44247;DHT22;29922;0.000;0.000;2022-07-10T14:09:52;18.20;55.00
44247;DHT22;29922;0.000;0.000;2022-07-10T14:15:13;18.20;55.00
44247;DHT22;29922;0.000;0.000;2022-07-10T14:20:35;18.20;54.90
44247;DHT22;29922;0.000;0.000;2022-07-10T14:26:11;18.20;54.90
44247;DHT22;29922;0.000;0.000;2022-07-10T14:31:33;18.20;54.90
44247;DHT22;29922;0.000;0.000;2022-07-10T14:36:55;18.20;55.00
44247;DHT22;29922;0.000;0.000;2022-07-10T14:42:15;18.20;55.60
44247;DHT22;29922;0.000;0.000;2022-07-10T14:47:36;18.20;55.00
44247;DHT22;29922;0.000;0.000;2022-07-10T14:52:58;18.30;55.00
44247;DHT22;29922;0.000;0.000;2022-07-10T14:58:18;18.30;55.00
44247;DHT22;29922;0.000;0.000;2022-07-10T15:03:39;18.30;55.00
44247;DHT22;29922;0.000;0.000;2022-07-10T15:09:01;18.30;54.90
44247;DHT22;29922;0.000;0.000;2022-07-10T15:14:22;18.30;54.90
44247;DHT22;29922;0.000;0.000;2022-07-10T15:19:44;18.30;54.80
44247;DHT22;29922;0.000;0.000;2022-07-10T15:25:06;18.40;54.80
44247;DHT22;29922;0.000;0.000;2022-07-10T15:30:28;18.40;54.80
44247;DHT22;29922;0.000;0.000;2022-07-10T15:35:48;18.40;54.70
44247;DHT22;29922;0.000;0.000;2022-07-10T15:41:10;18.40;54.70
44247;DHT22;29922;0.000;0.000;2022-07-10T15:51:52;18.50;54.60
44247;DHT22;29922;0.000;0.000;2022-07-10T15:57:15;18.50;54.50
44247;DHT22;29922;0.000;0.000;2022-07-10T16:02:36;18.60;54.40
44247;DHT22;29922;0.000;0.000;2022-07-10T16:07:57;18.60;54.30
44247;DHT22;29922;0.000;0.000;2022-07-10T16:13:19;18.60;54.20
44247;DHT22;29922;0.000;0.000;2022-07-10T16:18:40;18.70;54.20
44247;DHT22;29922;0.000;0.000;2022-07-10T16:24:01;18.70;54.10
44247;DHT22;29922;0.000;0.000;2022-07-10T16:29:24;18.70;54.00
44247;DHT22;29922;0.000;0.000;2022-07-10T16:34:45;18.70;53.90
44247;DHT22;29922;0.000;0.000;2022-07-10T16:40:07;18.80;53.70
44247;DHT22;29922;0.000;0.000;2022-07-10T16:45:30;18.80;53.70
44247;DHT22;29922;0.000;0.000;2022-07-10T16:50:50;18.80;53.50
44247;DHT22;29922;0.000;0.000;2022-07-10T16:56:11;18.80;53.50
44247;DHT22;29922;0.000;0.000;2022-07-10T17:01:33;18.80;53.30
44247;DHT22;29922;0.000;0.000;2022-07-10T17:06:53;18.90;53.30
44247;DHT22;29922;0.000;0.000;2022-07-10T17:12:14;18.90;53.20
44247;DHT22;29922;0.000;0.000;2022-07-10T17:17:36;18.90;53.10
44247;DHT22;29922;0.000;0.000;2022-07-10T17:22:57;18.80;53.00
44247;DHT22;29922;0.000;0.000;2022-07-10T17:28:17;18.80;53.10
44247;DHT22;29922;0.000;0.000;2022-07-10T17:33:39;18.80;53.00
44247;DHT22;29922;0.000;0.000;2022-07-10T17:38:59;18.80;53.00
44247;DHT22;29922;0.000;0.000;2022-07-10T17:44:20;18.80;53.00
44247;DHT22;29922;0.000;0.000;2022-07-10T17:49:42;18.80;53.00
44247;DHT22;29922;0.000;0.000;2022-07-10T17:55:03;18.80;53.10
44247;DHT22;29922;0.000;0.000;2022-07-10T18:00:24;18.80;52.90
44247;DHT22;29922;0.000;0.000;2022-07-10T18:05:46;18.70;53.10
44247;DHT22;29922;0.000;0.000;2022-07-10T18:11:07;18.80;53.10
44247;DHT22;29922;0.000;0.000;2022-07-10T18:16:27;18.80;53.00
44247;DHT22;29922;0.000;0.000;2022-07-10T18:21:49;18.80;53.10
44247;DHT22;29922;0.000;0.000;2022-07-10T18:27:10;18.70;53.20
44247;DHT22;29922;0.000;0.000;2022-07-10T18:32:30;18.70;53.20
44247;DHT22;29922;0.000;0.000;2022-07-10T18:38:10;18.60;53.30
44247;DHT22;29922;0.000;0.000;2022-07-10T18:43:31;18.60;53.50
44247;DHT22;29922;0.000;0.000;2022-07-10T18:48:52;18.60;53.40
44247;DHT22;29922;0.000;0.000;2022-07-10T18:54:14;18.60;53.50
44247;DHT22;29922;0.000;0.000;2022-07-10T18:59:35;18.60;53.50
44247;DHT22;29922;0.000;0.000;2022-07-10T19:04:55;18.60;53.60
44247;DHT22;29922;0.000;0.000;2022-07-10T19:10:17;18.50;53.50
44247;DHT22;29922;0.000;0.000;2022-07-10T19:15:38;18.50;53.60
44247;DHT22;29922;0.000;0.000;2022-07-10T19:20:59;18.50;53.90
44247;DHT22;29922;0.000;0.000;2022-07-10T19:26:21;18.50;53.60
44247;DHT22;29922;0.000;0.000;2022-07-10T19:31:43;18.40;53.50
44247;DHT22;29922;0.000;0.000;2022-07-10T19:37:04;18.40;53.50
44247;DHT22;29922;0.000;0.000;2022-07-10T19:42:26;18.40;53.60
44247;DHT22;29922;0.000;0.000;2022-07-10T19:47:47;18.40;53.60
44247;DHT22;29922;0.000;0.000;2022-07-10T19:53:10;18.40;53.70
44247;DHT22;29922;0.000;0.000;2022-07-10T19:58:32;18.40;53.60
44247;DHT22;29922;0.000;0.000;2022-07-10T20:03:53;18.40;53.60
44247;DHT22;29922;0.000;0.000;2022-07-10T20:09:14;18.40;53.70
44247;DHT22;29922;0.000;0.000;2022-07-10T20:14:35;18.40;53.70
44247;DHT22;29922;0.000;0.000;2022-07-10T20:19:56;18.40;53.60
44247;DHT22;29922;0.000;0.000;2022-07-10T20:25:17;18.40;53.50
44247;DHT22;29922;0.000;0.000;2022-07-10T20:30:39;18.30;53.60
44247;DHT22;29922;0.000;0.000;2022-07-10T20:36:00;18.40;53.60
44247;DHT22;29922;0.000;0.000;2022-07-10T20:41:39;18.30;53.60
44247;DHT22;29922;0.000;0.000;2022-07-10T20:47:01;18.30;53.80
44247;DHT22;29922;0.000;0.000;2022-07-10T20:52:22;18.30;53.60
44247;DHT22;29922;0.000;0.000;2022-07-10T20:57:43;18.30;53.40
44247;DHT22;29922;0.000;0.000;2022-07-10T21:03:05;18.30;53.70
44247;DHT22;29922;0.000;0.000;2022-07-10T21:08:26;18.30;53.40
44247;DHT22;29922;0.000;0.000;2022-07-10T21:13:47;18.30;53.50
44247;DHT22;29922;0.000;0.000;2022-07-10T21:19:09;18.30;53.60
44247;DHT22;29922;0.000;0.000;2022-07-10T21:24:30;18.30;53.50
44247;DHT22;29922;0.000;0.000;2022-07-10T21:29:50;18.30;53.50
44247;DHT22;29922;0.000;0.000;2022-07-10T21:35:12;18.30;53.60
44247;DHT22;29922;0.000;0.000;2022-07-10T21:40:33;18.30;53.60
44247;DHT22;29922;0.000;0.000;2022-07-10T21:45:53;18.30;53.60
44247;DHT22;29922;0.000;0.000;2022-07-10T21:51:16;18.20;53.40
44247;DHT22;29922;0.000;0.000;2022-07-10T21:56:36;18.20;53.40
44247;DHT22;29922;0.000;0.000;2022-07-10T22:01:57;18.20;53.50
44247;DHT22;29922;0.000;0.000;2022-07-10T22:07:19;18.20;53.30
44247;DHT22;29922;0.000;0.000;2022-07-10T22:12:42;18.20;53.50
44247;DHT22;29922;0.000;0.000;2022-07-10T22:18:03;18.20;53.40
44247;DHT22;29922;0.000;0.000;2022-07-10T22:23:25;18.20;53.10
44247;DHT22;29922;0.000;0.000;2022-07-10T22:28:45;18.20;53.20
44247;DHT22;29922;0.000;0.000;2022-07-10T22:34:06;18.20;53.40
44247;DHT22;29922;0.000;0.000;2022-07-10T22:39:28;18.20;53.30
44247;DHT22;29922;0.000;0.000;2022-07-10T22:44:49;18.20;53.30
44247;DHT22;29922;0.000;0.000;2022-07-10T22:50:09;18.10;53.20
44247;DHT22;29922;0.000;0.000;2022-07-10T22:55:31;18.10;53.30
44247;DHT22;29922;0.000;0.000;2022-07-10T23:00:52;18.10;53.30
44247;DHT22;29922;0.000;0.000;2022-07-10T23:06:13;18.10;53.20
44247;DHT22;29922;0.000;0.000;2022-07-10T23:11:36;18.10;53.20
44247;DHT22;29922;0.000;0.000;2022-07-10T23:16:57;18.10;53.20
44247;DHT22;29922;0.000;0.000;2022-07-10T23:22:17;18.10;53.20
44247;DHT22;29922;0.000;0.000;2022-07-10T23:27:39;18.10;53.10
44247;DHT22;29922;0.000;0.000;2022-07-10T23:33:00;18.10;53.10
44247;DHT22;29922;0.000;0.000;2022-07-10T23:38:20;18.00;53.10
44247;DHT22;29922;0.000;0.000;2022-07-10T23:43:42;18.10;53.10
44247;DHT22;29922;0.000;0.000;2022-07-10T23:49:04;18.00;53.10
44247;DHT22;29922;0.000;0.000;2022-07-10T23:54:43;18.00;53.10
